createdAt,value
2018-06-13T00:00:45.033Z,14.77
2018-06-13T00:03:13.151Z,14.07
2018-06-13T00:05:42.158Z,14.00
2018-06-13T00:08:10.854Z,14.80
2018-06-13T00:10:38.630Z,13.27
2018-06-13T00:13:06.454Z,12.70
2018-06-13T00:15:34.258Z,15.67
2018-06-13T00:18:02.011Z,14.27
2018-06-13T00:20:29.691Z,14.37
2018-06-13T00:22:57.516Z,12.73
2018-06-13T00:25:25.234Z,13.10
2018-06-13T00:27:52.982Z,13.57
2018-06-13T00:30:20.746Z,12.90
2018-06-13T00:32:48.447Z,15.10
2018-06-13T00:35:16.196Z,13.60
2018-06-13T00:37:43.891Z,17.60
2018-06-13T00:40:11.789Z,12.73
2018-06-13T00:42:39.543Z,14.00
2018-06-13T00:45:07.322Z,16.47
2018-06-13T00:47:35.026Z,17.00
2018-06-13T00:50:02.779Z,16.40
2018-06-13T00:52:30.542Z,15.10
2018-06-13T00:54:58.340Z,15.47
2018-06-13T00:57:26.074Z,15.10
2018-06-13T00:59:53.829Z,19.43
2018-06-13T01:02:21.591Z,16.27
2018-06-13T01:04:49.360Z,17.00
2018-06-13T01:07:17.133Z,14.90
2018-06-13T01:09:44.908Z,16.83
2018-06-13T01:12:12.544Z,16.80
2018-06-13T01:14:40.279Z,14.73
2018-06-13T01:17:08.054Z,13.03
2018-06-13T01:19:35.798Z,14.53
2018-06-13T01:22:03.774Z,15.37
2018-06-13T01:24:31.450Z,15.30
2018-06-13T01:26:59.706Z,14.50
2018-06-13T01:29:27.607Z,13.20
2018-06-13T01:31:55.379Z,13.93
2018-06-13T01:34:23.129Z,13.40
2018-06-13T01:36:50.891Z,14.43
2018-06-13T01:39:18.617Z,15.03
2018-06-13T01:41:46.334Z,14.80
2018-06-13T01:44:14.165Z,12.63
2018-06-13T01:46:41.850Z,15.17
2018-06-13T01:49:09.615Z,18.47
2018-06-13T01:51:37.352Z,13.23
2018-06-13T01:54:05.094Z,13.50
2018-06-13T01:56:32.807Z,13.40
2018-06-13T01:59:00.552Z,14.03
2018-06-13T02:01:28.219Z,16.23
2018-06-13T02:03:55.942Z,13.97
2018-06-13T02:06:23.663Z,16.57
2018-06-13T02:08:51.505Z,14.20
2018-06-13T02:11:19.248Z,16.90
2018-06-13T02:13:46.987Z,17.47
2018-06-13T02:16:14.739Z,14.53
2018-06-13T02:18:42.505Z,15.20
2018-06-13T02:21:10.251Z,14.10
2018-06-13T02:23:38.027Z,13.57
2018-06-13T02:26:05.766Z,16.90
2018-06-13T02:28:33.593Z,15.37
2018-06-13T02:31:01.387Z,14.33
2018-06-13T02:33:29.237Z,13.77
2018-06-13T02:35:57.024Z,15.43
2018-06-13T02:38:24.751Z,15.93
2018-06-13T02:40:52.482Z,13.93
2018-06-13T02:43:20.184Z,14.10
2018-06-13T02:45:47.955Z,14.50
2018-06-13T02:48:15.678Z,14.47
2018-06-13T02:50:43.500Z,14.50
2018-06-13T02:53:11.226Z,15.80
2018-06-13T02:55:39.046Z,13.67
2018-06-13T02:58:06.769Z,18.27
2018-06-13T03:00:34.489Z,16.00
2018-06-13T03:03:02.223Z,14.83
2018-06-13T03:05:30.015Z,14.97
2018-06-13T03:07:57.852Z,15.00
2018-06-13T03:10:25.582Z,13.53
2018-06-13T03:12:53.483Z,15.63
2018-06-13T03:15:21.160Z,20.70
2018-06-13T03:17:50.857Z,14.63
2018-06-13T03:20:18.742Z,13.70
2018-06-13T03:22:46.440Z,22.23
2018-06-13T03:25:14.334Z,14.63
2018-06-13T03:27:42.090Z,15.10
2018-06-13T03:30:09.891Z,17.47
2018-06-13T03:32:37.842Z,15.40
2018-06-13T03:35:05.609Z,14.37
2018-06-13T03:37:33.504Z,14.50
2018-06-13T03:40:01.259Z,14.83
2018-06-13T03:42:29.013Z,16.60
2018-06-13T03:44:56.791Z,15.80
2018-06-13T03:47:24.521Z,17.53
2018-06-13T03:49:52.485Z,15.27
2018-06-13T03:52:20.199Z,16.43
2018-06-13T03:54:47.994Z,16.67
2018-06-13T03:57:15.725Z,14.00
2018-06-13T03:59:43.490Z,14.93
2018-06-13T04:02:11.224Z,16.57
2018-06-13T04:04:39.100Z,14.33
2018-06-13T04:07:06.829Z,16.70
2018-06-13T04:09:34.583Z,16.23
2018-06-13T04:12:02.360Z,21.00
2018-06-13T04:14:30.096Z,17.50
2018-06-13T04:16:57.838Z,16.80
2018-06-13T04:19:25.525Z,16.73
2018-06-13T04:21:53.274Z,26.80
2018-06-13T04:24:20.964Z,17.60
2018-06-13T04:26:48.819Z,16.63
2018-06-13T04:29:16.501Z,15.37
2018-06-13T04:31:44.310Z,22.37
2018-06-13T04:34:12.015Z,17.00
2018-06-13T04:36:39.733Z,15.70
2018-06-13T04:39:08.825Z,15.40
2018-06-13T04:41:36.586Z,14.70
2018-06-13T04:44:04.385Z,16.53
2018-06-13T04:46:32.097Z,17.67
2018-06-13T04:48:59.816Z,15.07
2018-06-13T04:51:27.527Z,13.37
2018-06-13T04:53:55.337Z,15.27
2018-06-13T04:56:23.033Z,14.27
2018-06-13T04:58:50.770Z,14.33
2018-06-13T05:01:18.506Z,16.80
2018-06-13T05:03:46.271Z,13.17
2018-06-13T05:06:14.191Z,14.33
2018-06-13T05:08:41.907Z,12.60
2018-06-13T05:11:09.639Z,14.50
2018-06-13T05:13:37.298Z,13.27
2018-06-13T05:16:05.058Z,14.80
2018-06-13T05:18:32.829Z,12.13
2018-06-13T05:21:00.634Z,12.33
2018-06-13T05:23:28.394Z,13.10
2018-06-13T05:25:56.170Z,13.63
2018-06-13T05:28:23.932Z,11.87
2018-06-13T05:30:51.657Z,12.83
2018-06-13T05:33:19.339Z,11.63
2018-06-13T05:35:47.122Z,15.90
2018-06-13T05:38:14.873Z,17.10
2018-06-13T05:40:42.651Z,12.73
2018-06-13T05:43:10.391Z,14.50
2018-06-13T05:45:38.097Z,13.30
2018-06-13T05:48:05.914Z,18.40
2018-06-13T05:50:33.655Z,13.73
2018-06-13T05:53:01.420Z,13.33
2018-06-13T05:55:29.154Z,15.30
2018-06-13T05:57:56.864Z,16.23
2018-06-13T06:00:24.796Z,14.60
2018-06-13T06:02:52.650Z,16.20
2018-06-13T06:05:20.438Z,15.93
2018-06-13T06:07:48.224Z,18.07
2018-06-13T06:10:16.019Z,16.53
2018-06-13T06:12:43.780Z,15.37
2018-06-13T06:15:11.514Z,15.20
2018-06-13T06:17:39.267Z,17.40
2018-06-13T06:20:07.303Z,16.37
2018-06-13T06:22:35.133Z,14.43
2018-06-13T06:25:03.121Z,17.40
2018-06-13T06:27:30.915Z,16.40
2018-06-13T06:29:58.645Z,17.47
2018-06-13T06:32:26.360Z,16.50
2018-06-13T06:34:54.210Z,16.37
2018-06-13T06:37:21.913Z,17.63
2018-06-13T06:39:49.609Z,16.00
2018-06-13T06:42:17.328Z,16.63
2018-06-13T06:44:45.094Z,18.77
2018-06-13T06:47:12.809Z,20.17
2018-06-13T06:49:40.568Z,16.10
2018-06-13T06:52:08.124Z,19.40
2018-06-13T06:54:35.871Z,17.70
2018-06-13T06:57:03.590Z,18.17
2018-06-13T06:59:31.434Z,15.50
2018-06-13T07:01:59.216Z,18.33
2018-06-13T07:04:26.997Z,17.37
2018-06-13T07:06:54.755Z,19.13
2018-06-13T07:09:22.622Z,16.33
2018-06-13T07:11:50.311Z,15.00
2018-06-13T07:14:18.098Z,15.30
2018-06-13T07:16:45.848Z,14.77
2018-06-13T07:19:14.947Z,15.53
2018-06-13T07:21:42.602Z,15.20
2018-06-13T07:24:10.466Z,15.03
2018-06-13T07:26:38.174Z,13.13
2018-06-13T07:29:05.944Z,13.43
2018-06-13T07:31:33.701Z,12.33
2018-06-13T07:34:01.514Z,14.87
2018-06-13T07:36:29.267Z,15.30
2018-06-13T07:38:56.967Z,13.10
2018-06-13T07:41:24.764Z,11.70
2018-06-13T07:43:52.521Z,14.53
2018-06-13T07:46:20.257Z,12.63
2018-06-13T07:48:47.957Z,13.30
2018-06-13T07:51:15.763Z,10.37
2018-06-13T07:53:43.538Z,11.73
2018-06-13T07:56:11.339Z,10.60
2018-06-13T07:58:39.102Z,9.20
2018-06-13T08:01:06.814Z,10.27
2018-06-13T08:03:34.549Z,10.27
2018-06-13T08:06:02.310Z,8.53
2018-06-13T08:08:30.126Z,13.30
2018-06-13T08:10:57.782Z,8.00
2018-06-13T08:13:25.514Z,7.47
2018-06-13T08:15:53.242Z,6.93
2018-06-13T08:18:20.974Z,7.77
2018-06-13T08:20:48.736Z,7.43
2018-06-13T08:23:16.486Z,6.73
2018-06-13T08:25:44.231Z,8.30
2018-06-13T08:28:11.941Z,5.83
2018-06-13T08:30:39.746Z,9.40
2018-06-13T08:33:07.446Z,8.93
2018-06-13T08:35:35.199Z,8.80
2018-06-13T08:38:02.894Z,6.70
2018-06-13T08:40:30.770Z,7.20
2018-06-13T08:42:58.553Z,9.50
2018-06-13T08:45:26.318Z,7.77
2018-06-13T08:47:54.089Z,6.60
2018-06-13T08:50:21.833Z,11.53
2018-06-13T08:52:49.585Z,7.47
2018-06-13T08:55:17.322Z,7.40
2018-06-13T08:57:45.040Z,5.83
2018-06-13T09:00:12.767Z,9.43
2018-06-13T09:02:40.617Z,5.37
2018-06-13T09:05:08.359Z,6.20
2018-06-13T09:07:36.160Z,5.83
2018-06-13T09:10:03.968Z,5.80
2018-06-13T09:12:32.177Z,6.00
2018-06-13T09:14:59.938Z,5.87
2018-06-13T09:17:27.697Z,5.70
2018-06-13T09:19:55.396Z,5.13
2018-06-13T09:22:23.298Z,6.07
2018-06-13T09:24:50.979Z,6.33
2018-06-13T09:27:18.828Z,6.13
2018-06-13T09:29:46.541Z,6.60
2018-06-13T09:32:14.258Z,6.23
2018-06-13T09:34:42.016Z,7.17
2018-06-13T09:37:09.774Z,7.43
2018-06-13T09:39:37.457Z,8.07
2018-06-13T09:42:05.209Z,6.90
2018-06-13T09:44:32.953Z,7.73
2018-06-13T09:47:06.902Z,7.63
2018-06-13T09:49:28.634Z,8.57
2018-06-13T09:51:56.432Z,9.17
2018-06-13T09:54:24.169Z,9.47
2018-06-13T09:56:51.939Z,9.30
2018-06-13T09:59:20.327Z,9.60
2018-06-13T10:02:19.918Z,8.40
2018-06-13T10:04:48.123Z,9.50
2018-06-13T10:07:15.957Z,7.53
2018-06-13T10:09:43.783Z,8.13
2018-06-13T10:12:11.582Z,8.23
2018-06-13T10:14:39.404Z,9.33
2018-06-13T10:17:07.339Z,8.53
2018-06-13T10:19:35.260Z,8.77
2018-06-13T10:22:03.028Z,7.40
2018-06-13T10:24:30.906Z,7.63
2018-06-13T10:26:58.828Z,7.80
2018-06-13T10:29:26.591Z,7.50
2018-06-13T10:31:54.350Z,8.53
2018-06-13T10:34:22.126Z,9.00
2018-06-13T10:36:49.955Z,8.40
2018-06-13T10:39:17.921Z,8.00
2018-06-13T10:41:45.758Z,8.27
2018-06-13T10:44:15.428Z,8.50
2018-06-13T10:46:43.283Z,9.47
2018-06-13T10:49:11.515Z,8.27
2018-06-13T10:51:39.447Z,6.63
2018-06-13T10:54:07.428Z,6.80
2018-06-13T10:56:35.349Z,9.07
2018-06-13T10:59:03.539Z,6.93
2018-06-13T11:01:31.285Z,5.80
2018-06-13T11:03:59.010Z,6.00
2018-06-13T11:06:26.843Z,7.00
2018-06-13T11:08:54.658Z,6.87
2018-06-13T11:11:22.546Z,7.63
2018-06-13T11:13:50.277Z,7.90
2018-06-13T11:16:18.046Z,8.40
2018-06-13T11:18:45.805Z,8.03
2018-06-13T11:21:13.546Z,7.60
2018-06-13T11:23:41.355Z,7.83
2018-06-13T11:26:09.044Z,11.00
2018-06-13T11:28:36.828Z,7.20
2018-06-13T11:31:04.558Z,9.30
2018-06-13T11:33:32.418Z,9.20
2018-06-13T11:36:00.162Z,7.10
2018-06-13T11:38:28.658Z,6.87
2018-06-13T11:40:56.333Z,6.20
2018-06-13T11:43:24.964Z,6.77
2018-06-13T11:45:52.670Z,6.40
2018-06-13T11:48:20.409Z,6.00
2018-06-13T11:50:48.314Z,6.33
2018-06-13T11:53:16.052Z,7.90
2018-06-13T11:55:43.770Z,6.83
2018-06-13T11:58:11.942Z,5.87
2018-06-13T12:00:39.731Z,6.57
2018-06-13T12:03:07.486Z,5.60
2018-06-13T12:05:35.316Z,6.23
2018-06-13T12:08:02.950Z,6.30
2018-06-13T12:10:30.811Z,6.67
2018-06-13T12:12:58.692Z,5.97
2018-06-13T12:15:26.530Z,6.20
2018-06-13T12:17:54.287Z,6.80
2018-06-13T12:20:23.037Z,6.77
2018-06-13T12:22:50.717Z,7.40
2018-06-13T12:25:19.424Z,6.27
2018-06-13T12:27:47.322Z,6.83
2018-06-13T12:30:15.158Z,7.07
2018-06-13T12:32:42.906Z,6.40
2018-06-13T12:35:10.841Z,8.00
2018-06-13T12:37:38.866Z,5.77
2018-06-13T12:40:11.246Z,5.80
2018-06-13T12:42:39.174Z,5.53
2018-06-13T12:45:06.967Z,5.50
2018-06-13T12:47:34.747Z,5.50
2018-06-13T12:50:02.639Z,5.53
2018-06-13T12:52:30.538Z,5.63
2018-06-13T12:54:58.280Z,5.00
2018-06-13T12:57:26.090Z,5.80
2018-06-13T12:59:53.826Z,5.30
2018-06-13T13:02:21.646Z,8.20
2018-06-13T13:04:49.337Z,6.07
2018-06-13T13:07:17.101Z,5.37
2018-06-13T13:09:44.882Z,5.13
2018-06-13T13:12:12.729Z,4.73
2018-06-13T13:14:40.493Z,5.03
2018-06-13T13:17:08.370Z,5.20
2018-06-13T13:19:36.127Z,4.90
2018-06-13T13:22:03.863Z,5.70
2018-06-13T13:24:31.632Z,4.93
2018-06-13T13:26:59.445Z,5.10
2018-06-13T13:29:27.160Z,6.63
2018-06-13T13:31:55.015Z,5.10
2018-06-13T13:34:22.860Z,5.43
2018-06-13T13:36:50.668Z,4.93
2018-06-13T13:39:18.489Z,6.00
2018-06-13T13:41:46.195Z,5.70
2018-06-13T13:44:13.980Z,6.50
2018-06-13T13:46:41.683Z,5.80
2018-06-13T13:49:09.501Z,6.47
2018-06-13T13:51:37.339Z,5.30
2018-06-13T13:54:05.209Z,5.27
2018-06-13T13:56:33.202Z,5.67
2018-06-13T13:59:00.942Z,5.43
2018-06-13T14:01:28.717Z,5.37
2018-06-13T14:03:56.481Z,4.90
2018-06-13T14:06:24.405Z,5.80
2018-06-13T14:08:52.162Z,5.30
2018-06-13T14:11:20.050Z,5.30
2018-06-13T14:13:47.796Z,4.60
2018-06-13T14:16:15.566Z,4.60
2018-06-13T14:18:43.320Z,4.80
2018-06-13T14:21:11.089Z,4.70
2018-06-13T14:23:38.851Z,4.70
2018-06-13T14:26:07.071Z,5.17
2018-06-13T14:28:34.680Z,4.40
2018-06-13T14:31:02.490Z,4.53
2018-06-13T14:33:32.034Z,4.43
2018-06-13T14:36:04.837Z,6.70
2018-06-13T14:38:32.742Z,4.53
2018-06-13T14:41:00.458Z,4.97
2018-06-13T14:43:28.200Z,4.43
2018-06-13T14:45:56.013Z,5.83
2018-06-13T14:48:24.476Z,5.20
2018-06-13T14:50:52.173Z,4.50
2018-06-13T14:53:20.075Z,5.33
2018-06-13T14:55:53.426Z,4.30
2018-06-13T14:58:21.286Z,4.70
2018-06-13T15:00:49.101Z,4.00
2018-06-13T15:03:16.950Z,4.30
2018-06-13T15:05:44.700Z,4.60
2018-06-13T15:08:12.923Z,3.47
2018-06-13T15:10:40.731Z,5.73
2018-06-13T15:13:08.538Z,4.67
2018-06-13T15:15:36.313Z,4.30
2018-06-13T15:18:04.083Z,4.53
2018-06-13T15:20:31.921Z,4.73
2018-06-13T15:22:59.761Z,4.80
2018-06-13T15:25:27.612Z,5.40
2018-06-13T15:27:55.391Z,5.23
2018-06-13T15:30:23.214Z,4.80
2018-06-13T15:32:50.993Z,4.80
2018-06-13T15:35:19.222Z,5.13
2018-06-13T15:37:47.010Z,5.40
2018-06-13T15:40:14.856Z,5.23
2018-06-13T15:42:42.714Z,4.50
2018-06-13T15:45:10.654Z,5.27
2018-06-13T15:47:38.443Z,5.07
2018-06-13T15:50:06.466Z,5.53
2018-06-13T15:52:34.334Z,5.53
2018-06-13T15:55:02.394Z,4.60
2018-06-13T15:57:30.021Z,5.27
2018-06-13T15:59:57.869Z,5.10
2018-06-13T16:02:25.792Z,4.80
2018-06-13T16:04:53.608Z,5.50
2018-06-13T16:07:21.434Z,8.03
2018-06-13T16:09:49.340Z,5.33
2018-06-13T16:12:17.320Z,5.53
2018-06-13T16:14:45.038Z,4.77
2018-06-13T16:17:12.802Z,4.93
2018-06-13T16:19:40.604Z,4.63
2018-06-13T16:22:08.368Z,6.43
2018-06-13T16:24:36.165Z,5.20
2018-06-13T16:27:04.227Z,5.40
2018-06-13T16:29:32.170Z,6.73
2018-06-13T16:32:00.177Z,4.70
2018-06-13T16:34:27.933Z,4.80
2018-06-13T16:36:57.311Z,4.47
2018-06-13T16:39:25.150Z,5.00
2018-06-13T16:41:52.931Z,5.03
2018-06-13T16:44:20.669Z,5.60
2018-06-13T16:46:48.422Z,4.70
2018-06-13T16:49:16.185Z,5.23
2018-06-13T16:51:56.208Z,5.90
2018-06-13T16:54:35.323Z,6.03
2018-06-13T16:57:03.116Z,5.23
2018-06-13T16:59:30.900Z,4.63
2018-06-13T17:01:58.658Z,4.97
2018-06-13T17:04:26.433Z,4.47
2018-06-13T17:06:54.764Z,4.67
2018-06-13T17:09:22.575Z,5.20
2018-06-13T17:11:50.519Z,4.20
2018-06-13T17:14:18.377Z,4.60
2018-06-13T17:16:46.183Z,4.90
2018-06-13T17:19:14.016Z,3.87
2018-06-13T17:21:41.808Z,5.23
2018-06-13T17:24:09.836Z,3.03
2018-06-13T17:26:37.762Z,3.27
2018-06-13T17:29:05.614Z,3.47
2018-06-13T17:31:33.961Z,4.90
2018-06-13T17:34:01.762Z,4.50
2018-06-13T17:36:29.540Z,3.30
2018-06-13T17:38:57.371Z,3.70
2018-06-13T17:41:25.103Z,3.17
2018-06-13T17:43:52.919Z,3.20
2018-06-13T17:46:20.720Z,10.20
2018-06-13T17:48:48.479Z,4.47
2018-06-13T17:51:16.319Z,3.60
2018-06-13T17:53:44.232Z,3.07
2018-06-13T17:56:12.008Z,3.13
2018-06-13T17:58:39.913Z,3.63
2018-06-13T18:01:07.911Z,4.00
2018-06-13T18:03:38.087Z,3.03
2018-06-13T18:06:05.835Z,4.07
2018-06-13T18:08:33.783Z,3.60
2018-06-13T18:11:06.999Z,3.90
2018-06-13T18:13:35.193Z,3.13
2018-06-13T18:16:16.784Z,3.43
2018-06-13T18:18:55.845Z,3.30
2018-06-13T18:21:23.832Z,3.17
2018-06-13T18:24:08.645Z,3.80
2018-06-13T18:26:36.878Z,4.37
2018-06-13T18:29:04.871Z,3.20
2018-06-13T18:31:32.668Z,3.20
2018-06-13T18:34:00.453Z,6.03
2018-06-13T18:36:28.297Z,3.93
2018-06-13T18:38:56.165Z,2.87
2018-06-13T18:41:23.981Z,3.80
2018-06-13T18:43:51.969Z,3.67
2018-06-13T18:46:19.818Z,3.97
2018-06-13T18:48:47.801Z,6.30
2018-06-13T18:51:16.445Z,3.10
2018-06-13T18:53:44.246Z,4.47
2018-06-13T18:56:12.116Z,3.47
2018-06-13T18:58:40.087Z,3.17
2018-06-13T19:01:07.895Z,6.77
2018-06-13T19:03:35.629Z,4.00
2018-06-13T19:06:03.557Z,4.07
2018-06-13T19:08:31.391Z,4.10
2018-06-13T19:10:58.993Z,3.80
2018-06-13T19:13:27.103Z,5.13
2018-06-13T19:15:54.889Z,3.13
2018-06-13T19:18:22.523Z,3.70
2018-06-13T19:20:50.310Z,3.63
2018-06-13T19:23:18.104Z,5.13
2018-06-13T19:25:45.984Z,3.27
2018-06-13T19:28:13.897Z,3.83
2018-06-13T19:30:41.841Z,3.70
2018-06-13T19:33:12.290Z,3.67
2018-06-13T19:35:40.061Z,6.10
2018-06-13T19:38:08.079Z,4.03
2018-06-13T19:40:35.974Z,3.37
2018-06-13T19:43:07.866Z,3.70
2018-06-13T19:45:35.813Z,4.80
2018-06-13T19:48:09.169Z,3.70
2018-06-13T19:50:37.270Z,3.27
2018-06-13T19:53:10.792Z,3.80
2018-06-13T19:55:44.115Z,4.10
2018-06-13T19:58:12.243Z,4.20
2018-06-13T20:00:40.155Z,7.80
2018-06-13T20:03:14.650Z,4.10
2018-06-13T20:05:43.142Z,4.23
2018-06-13T20:08:11.291Z,3.83
2018-06-13T20:10:39.171Z,3.70
2018-06-13T20:13:12.715Z,4.53
2018-06-13T20:15:46.213Z,3.70
2018-06-13T20:18:19.677Z,4.40
2018-06-13T20:20:47.435Z,3.90
2018-06-13T20:23:15.182Z,3.97
2018-06-13T20:25:48.868Z,4.00
2018-06-13T20:28:22.216Z,3.87
2018-06-13T20:30:55.751Z,4.13
2018-06-13T20:33:23.629Z,3.90
2018-06-13T20:35:51.979Z,4.00
2018-06-13T20:38:19.847Z,4.27
2018-06-13T20:40:47.642Z,4.43
2018-06-13T20:43:15.398Z,3.17
2018-06-13T20:45:43.239Z,4.00
2018-06-13T20:48:11.194Z,4.20
2018-06-13T20:50:38.951Z,4.30
2018-06-13T20:53:06.741Z,5.13
2018-06-13T20:55:34.506Z,4.33
2018-06-13T20:58:02.383Z,4.60
2018-06-13T21:00:30.336Z,4.00
2018-06-13T21:02:58.130Z,4.03
2018-06-13T21:05:25.912Z,4.27
2018-06-13T21:07:54.018Z,4.40
2018-06-13T21:10:22.277Z,4.40
2018-06-13T21:12:50.250Z,4.17
2018-06-13T21:15:18.219Z,3.67
2018-06-13T21:17:46.180Z,3.53
2018-06-13T21:20:14.148Z,4.17
2018-06-13T21:22:42.125Z,4.00
2018-06-13T21:25:09.815Z,3.90
2018-06-13T21:27:37.747Z,4.90
2018-06-13T21:30:05.920Z,3.90
2018-06-13T21:32:33.806Z,4.00
2018-06-13T21:35:01.875Z,8.20
2018-06-13T21:37:29.926Z,4.00
2018-06-13T21:39:57.998Z,4.13
2018-06-13T21:42:25.862Z,6.43
2018-06-13T21:44:54.351Z,4.23
2018-06-13T21:47:22.210Z,6.07
2018-06-13T21:49:51.203Z,4.10
2018-06-13T21:52:19.067Z,4.20
2018-06-13T21:54:46.934Z,5.13
2018-06-13T21:57:14.902Z,4.00
2018-06-13T21:59:42.972Z,4.60
2018-06-13T22:02:11.048Z,4.63
2018-06-13T22:04:39.062Z,5.73
2018-06-13T22:07:07.186Z,4.70
2018-06-13T22:09:35.156Z,4.63
2018-06-13T22:12:03.021Z,9.27
2018-06-13T22:17:21.950Z,4.80
2018-06-13T22:19:50.176Z,5.17
2018-06-13T22:22:18.409Z,5.67
2018-06-13T22:24:46.685Z,5.33
2018-06-13T22:27:15.007Z,5.30
2018-06-13T22:29:42.892Z,4.83
2018-06-13T22:32:11.203Z,6.90
2018-06-13T22:34:39.523Z,5.27
2018-06-13T22:37:07.861Z,5.40
2018-06-13T22:39:36.097Z,5.63
2018-06-13T22:42:04.351Z,5.30
2018-06-13T22:44:32.895Z,7.00
2018-06-13T22:47:01.180Z,5.57
2018-06-13T22:49:29.515Z,5.07
2018-06-13T22:51:57.662Z,7.40
2018-06-13T22:54:25.730Z,6.07
2018-06-13T22:56:53.875Z,5.77
2018-06-13T22:59:28.706Z,5.17
2018-06-13T23:01:56.769Z,6.17
2018-06-13T23:04:24.661Z,5.43
2018-06-13T23:06:52.621Z,7.20
2018-06-13T23:09:20.579Z,8.50
2018-06-13T23:11:48.549Z,6.83
2018-06-13T23:14:16.383Z,7.80
2018-06-13T23:16:44.385Z,6.07
2018-06-13T23:19:12.360Z,7.50
2018-06-13T23:21:40.180Z,6.93
2018-06-13T23:24:08.097Z,6.23
2018-06-13T23:26:36.067Z,6.00
2018-06-13T23:29:04.149Z,7.53
2018-06-13T23:31:32.203Z,6.30
2018-06-13T23:34:00.263Z,7.67
2018-06-13T23:36:28.247Z,7.13
2018-06-13T23:38:56.219Z,6.53
2018-06-13T23:41:24.381Z,8.60
2018-06-13T23:43:52.452Z,7.10
2018-06-13T23:46:20.321Z,6.63
2018-06-13T23:48:48.184Z,8.67
2018-06-13T23:51:16.120Z,7.43
2018-06-13T23:53:44.128Z,6.20
2018-06-13T23:56:12.189Z,7.07
2018-06-13T23:58:40.259Z,7.97
